sensor_id;sensor_type;location;lat;lon;timestamp;temperature;humidity
14140;DHT22;7150;53.514;9.988;2022-10-16T00:01:26;20.60;94.00
14140;DHT22;7150;53.514;9.988;2022-10-16T00:03:52;20.60;94.00
14140;DHT22;7150;53.514;9.988;2022-10-16T00:06:19;20.60;94.00
14140;DHT22;7150;53.514;9.988;2022-10-16T00:08:46;20.60;93.90
14140;DHT22;7150;53.514;9.988;2022-10-16T00:11:14;20.60;93.90
14140;DHT22;7150;53.514;9.988;2022-10-16T00:13:42;20.60;93.70
14140;DHT22;7150;53.514;9.988;2022-10-16T00:16:09;20.60;93.60
14140;DHT22;7150;53.514;9.988;2022-10-16T00:18:36;20.60;93.60
14140;DHT22;7150;53.514;9.988;2022-10-16T00:21:16;20.60;93.70
14140;DHT22;7150;53.514;9.988;2022-10-16T00:23:42;20.60;93.50
14140;DHT22;7150;53.514;9.988;2022-10-16T00:26:10;20.60;93.40
14140;DHT22;7150;53.514;9.988;2022-10-16T00:28:36;20.60;93.40
14140;DHT22;7150;53.514;9.988;2022-10-16T00:31:06;20.60;93.30
14140;DHT22;7150;53.514;9.988;2022-10-16T00:33:33;20.60;93.30
14140;DHT22;7150;53.514;9.988;2022-10-16T00:36:00;20.60;93.10
14140;DHT22;7150;53.514;9.988;2022-10-16T00:38:25;20.60;93.10
14140;DHT22;7150;53.514;9.988;2022-10-16T00:40:51;20.60;93.00
14140;DHT22;7150;53.514;9.988;2022-10-16T00:43:38;20.60;92.90
14140;DHT22;7150;53.514;9.988;2022-10-16T00:46:13;20.60;92.70
14140;DHT22;7150;53.514;9.988;2022-10-16T00:48:40;20.60;92.80
14140;DHT22;7150;53.514;9.988;2022-10-16T00:51:06;20.60;92.60
14140;DHT22;7150;53.514;9.988;2022-10-16T00:53:32;20.60;92.60
14140;DHT22;7150;53.514;9.988;2022-10-16T00:55:58;20.60;92.50
14140;DHT22;7150;53.514;9.988;2022-10-16T00:58:23;20.60;92.40
14140;DHT22;7150;53.514;9.988;2022-10-16T01:00:49;20.60;92.30
14140;DHT22;7150;53.514;9.988;2022-10-16T01:03:33;20.60;92.30
14140;DHT22;7150;53.514;9.988;2022-10-16T01:06:14;20.60;92.20
14140;DHT22;7150;53.514;9.988;2022-10-16T01:08:45;20.60;92.10
14140;DHT22;7150;53.514;9.988;2022-10-16T01:14:23;20.60;92.10
14140;DHT22;7150;53.514;9.988;2022-10-16T01:17:02;20.50;92.10
14140;DHT22;7150;53.514;9.988;2022-10-16T01:22:26;20.60;92.00
14140;DHT22;7150;53.514;9.988;2022-10-16T01:25:00;20.50;92.00
14140;DHT22;7150;53.514;9.988;2022-10-16T01:27:33;20.50;92.00
14140;DHT22;7150;53.514;9.988;2022-10-16T01:30:11;20.50;92.00
14140;DHT22;7150;53.514;9.988;2022-10-16T01:35:26;20.40;92.00
14140;DHT22;7150;53.514;9.988;2022-10-16T01:38:10;20.40;91.90
14140;DHT22;7150;53.514;9.988;2022-10-16T01:40:40;20.40;91.90
14140;DHT22;7150;53.514;9.988;2022-10-16T01:43:20;20.40;92.00
14140;DHT22;7150;53.514;9.988;2022-10-16T01:45:48;20.40;92.00
14140;DHT22;7150;53.514;9.988;2022-10-16T01:48:18;20.40;91.90
14140;DHT22;7150;53.514;9.988;2022-10-16T01:50:57;20.40;91.90
14140;DHT22;7150;53.514;9.988;2022-10-16T01:53:25;20.40;91.90
14140;DHT22;7150;53.514;9.988;2022-10-16T01:55:52;20.30;91.80
14140;DHT22;7150;53.514;9.988;2022-10-16T01:58:20;20.30;91.80
14140;DHT22;7150;53.514;9.988;2022-10-16T02:00:47;20.30;91.80
14140;DHT22;7150;53.514;9.988;2022-10-16T02:03:16;20.30;91.60
14140;DHT22;7150;53.514;9.988;2022-10-16T02:05:54;20.30;91.70
14140;DHT22;7150;53.514;9.988;2022-10-16T02:08:22;20.30;91.70
14140;DHT22;7150;53.514;9.988;2022-10-16T02:10:49;20.20;91.70
14140;DHT22;7150;53.514;9.988;2022-10-16T02:15:52;20.20;91.70
14140;DHT22;7150;53.514;9.988;2022-10-16T02:18:18;20.30;91.70
14140;DHT22;7150;53.514;9.988;2022-10-16T02:23:40;20.20;91.50
14140;DHT22;7150;53.514;9.988;2022-10-16T02:26:09;20.20;91.50
14140;DHT22;7150;53.514;9.988;2022-10-16T02:28:46;20.20;91.50
14140;DHT22;7150;53.514;9.988;2022-10-16T02:31:16;20.20;91.60
14140;DHT22;7150;53.514;9.988;2022-10-16T02:33:44;20.10;91.50
14140;DHT22;7150;53.514;9.988;2022-10-16T02:36:11;20.10;91.50
14140;DHT22;7150;53.514;9.988;2022-10-16T02:38:37;20.10;91.50
14140;DHT22;7150;53.514;9.988;2022-10-16T02:41:04;20.10;91.50
14140;DHT22;7150;53.514;9.988;2022-10-16T02:43:29;20.10;91.40
14140;DHT22;7150;53.514;9.988;2022-10-16T02:45:55;20.10;91.50
14140;DHT22;7150;53.514;9.988;2022-10-16T02:48:21;20.10;91.40
14140;DHT22;7150;53.514;9.988;2022-10-16T02:50:46;19.80;91.30
14140;DHT22;7150;53.514;9.988;2022-10-16T02:53:12;20.10;91.40
14140;DHT22;7150;53.514;9.988;2022-10-16T02:55:37;20.00;91.40
14140;DHT22;7150;53.514;9.988;2022-10-16T02:58:03;20.00;91.40
14140;DHT22;7150;53.514;9.988;2022-10-16T03:00:28;20.00;91.30
14140;DHT22;7150;53.514;9.988;2022-10-16T03:02:54;20.00;91.30
14140;DHT22;7150;53.514;9.988;2022-10-16T03:05:19;20.00;91.20
14140;DHT22;7150;53.514;9.988;2022-10-16T03:07:45;20.00;91.30
14140;DHT22;7150;53.514;9.988;2022-10-16T03:10:10;19.90;91.30
14140;DHT22;7150;53.514;9.988;2022-10-16T03:12:36;19.90;91.30
14140;DHT22;7150;53.514;9.988;2022-10-16T03:15:01;19.90;91.20
14140;DHT22;7150;53.514;9.988;2022-10-16T03:17:27;19.90;91.20
14140;DHT22;7150;53.514;9.988;2022-10-16T03:19:53;19.90;91.20
14140;DHT22;7150;53.514;9.988;2022-10-16T03:22:18;19.90;91.20
14140;DHT22;7150;53.514;9.988;2022-10-16T03:24:43;19.80;91.20
14140;DHT22;7150;53.514;9.988;2022-10-16T03:27:09;19.80;91.30
14140;DHT22;7150;53.514;9.988;2022-10-16T03:29:34;19.80;91.20
14140;DHT22;7150;53.514;9.988;2022-10-16T03:32:00;19.80;91.30
14140;DHT22;7150;53.514;9.988;2022-10-16T03:34:26;19.70;91.30
14140;DHT22;7150;53.514;9.988;2022-10-16T03:36:51;19.70;91.30
14140;DHT22;7150;53.514;9.988;2022-10-16T03:39:19;19.70;91.30
14140;DHT22;7150;53.514;9.988;2022-10-16T03:41:44;19.70;91.30
14140;DHT22;7150;53.514;9.988;2022-10-16T03:44:11;19.70;91.30
14140;DHT22;7150;53.514;9.988;2022-10-16T03:46:37;19.70;91.30
14140;DHT22;7150;53.514;9.988;2022-10-16T03:49:02;19.70;91.60
14140;DHT22;7150;53.514;9.988;2022-10-16T03:51:28;19.60;91.20
14140;DHT22;7150;53.514;9.988;2022-10-16T03:53:53;19.60;91.30
14140;DHT22;7150;53.514;9.988;2022-10-16T03:56:19;19.60;91.20
14140;DHT22;7150;53.514;9.988;2022-10-16T03:58:44;19.60;91.20
14140;DHT22;7150;53.514;9.988;2022-10-16T04:01:10;19.60;91.20
14140;DHT22;7150;53.514;9.988;2022-10-16T04:03:35;19.60;91.30
14140;DHT22;7150;53.514;9.988;2022-10-16T04:06:01;19.60;91.20
14140;DHT22;7150;53.514;9.988;2022-10-16T04:08:26;19.60;91.30
14140;DHT22;7150;53.514;9.988;2022-10-16T04:10:51;19.60;91.30
14140;DHT22;7150;53.514;9.988;2022-10-16T04:13:17;19.60;91.20
14140;DHT22;7150;53.514;9.988;2022-10-16T04:15:44;19.60;91.20
14140;DHT22;7150;53.514;9.988;2022-10-16T04:18:11;19.60;91.20
14140;DHT22;7150;53.514;9.988;2022-10-16T04:20:37;19.60;91.10
14140;DHT22;7150;53.514;9.988;2022-10-16T04:23:02;19.60;91.20
14140;DHT22;7150;53.514;9.988;2022-10-16T04:25:28;19.60;91.00
14140;DHT22;7150;53.514;9.988;2022-10-16T04:27:54;19.60;91.10
14140;DHT22;7150;53.514;9.988;2022-10-16T04:30:20;19.60;91.10
14140;DHT22;7150;53.514;9.988;2022-10-16T04:32:50;19.60;91.10
14140;DHT22;7150;53.514;9.988;2022-10-16T04:35:17;19.60;91.10
14140;DHT22;7150;53.514;9.988;2022-10-16T04:37:42;19.60;91.10
14140;DHT22;7150;53.514;9.988;2022-10-16T04:40:08;19.60;91.00
14140;DHT22;7150;53.514;9.988;2022-10-16T04:42:33;19.60;91.10
14140;DHT22;7150;53.514;9.988;2022-10-16T04:44:59;19.60;91.00
14140;DHT22;7150;53.514;9.988;2022-10-16T04:47:24;19.60;91.00
14140;DHT22;7150;53.514;9.988;2022-10-16T04:49:50;19.50;91.30
14140;DHT22;7150;53.514;9.988;2022-10-16T04:52:15;19.60;91.10
14140;DHT22;7150;53.514;9.988;2022-10-16T04:54:41;19.60;91.00
14140;DHT22;7150;53.514;9.988;2022-10-16T04:57:06;19.50;91.00
14140;DHT22;7150;53.514;9.988;2022-10-16T04:59:32;19.50;91.00
14140;DHT22;7150;53.514;9.988;2022-10-16T05:01:57;19.50;91.10
14140;DHT22;7150;53.514;9.988;2022-10-16T05:04:23;19.50;91.00
14140;DHT22;7150;53.514;9.988;2022-10-16T05:06:49;19.50;91.10
14140;DHT22;7150;53.514;9.988;2022-10-16T05:09:14;19.60;91.10
14140;DHT22;7150;53.514;9.988;2022-10-16T05:11:40;19.50;91.00
14140;DHT22;7150;53.514;9.988;2022-10-16T05:14:05;19.60;91.10
14140;DHT22;7150;53.514;9.988;2022-10-16T05:16:31;19.60;91.10
14140;DHT22;7150;53.514;9.988;2022-10-16T05:18:56;19.60;91.20
14140;DHT22;7150;53.514;9.988;2022-10-16T05:21:22;19.60;91.10
14140;DHT22;7150;53.514;9.988;2022-10-16T05:23:48;19.60;91.20
14140;DHT22;7150;53.514;9.988;2022-10-16T05:26:13;19.50;91.10
14140;DHT22;7150;53.514;9.988;2022-10-16T05:28:39;19.60;91.20
14140;DHT22;7150;53.514;9.988;2022-10-16T05:31:08;19.60;91.20
14140;DHT22;7150;53.514;9.988;2022-10-16T05:33:34;19.50;91.20
14140;DHT22;7150;53.514;9.988;2022-10-16T05:36:08;19.50;91.20
14140;DHT22;7150;53.514;9.988;2022-10-16T05:38:35;19.60;91.20
14140;DHT22;7150;53.514;9.988;2022-10-16T05:41:00;19.50;91.20
14140;DHT22;7150;53.514;9.988;2022-10-16T05:43:27;19.50;91.20
14140;DHT22;7150;53.514;9.988;2022-10-16T05:46:03;19.60;91.20
14140;DHT22;7150;53.514;9.988;2022-10-16T05:48:30;19.60;91.20
14140;DHT22;7150;53.514;9.988;2022-10-16T05:50:57;19.60;91.20
14140;DHT22;7150;53.514;9.988;2022-10-16T05:53:23;19.60;91.20
14140;DHT22;7150;53.514;9.988;2022-10-16T05:55:54;19.60;91.20
14140;DHT22;7150;53.514;9.988;2022-10-16T05:58:21;19.60;91.10
14140;DHT22;7150;53.514;9.988;2022-10-16T06:01:01;19.60;91.20
14140;DHT22;7150;53.514;9.988;2022-10-16T06:03:27;19.60;91.10
14140;DHT22;7150;53.514;9.988;2022-10-16T06:05:53;19.60;91.30
14140;DHT22;7150;53.514;9.988;2022-10-16T06:08:20;19.60;91.20
14140;DHT22;7150;53.514;9.988;2022-10-16T06:10:46;19.50;91.20
14140;DHT22;7150;53.514;9.988;2022-10-16T06:13:13;19.60;91.30
14140;DHT22;7150;53.514;9.988;2022-10-16T06:15:40;19.60;91.30
14140;DHT22;7150;53.514;9.988;2022-10-16T06:18:10;19.60;91.20
14140;DHT22;7150;53.514;9.988;2022-10-16T06:20:36;19.60;91.30
14140;DHT22;7150;53.514;9.988;2022-10-16T06:23:02;19.60;91.20
14140;DHT22;7150;53.514;9.988;2022-10-16T06:25:29;19.60;91.30
14140;DHT22;7150;53.514;9.988;2022-10-16T06:27:55;19.60;91.30
14140;DHT22;7150;53.514;9.988;2022-10-16T06:30:20;19.60;91.20
14140;DHT22;7150;53.514;9.988;2022-10-16T06:32:46;19.60;91.30
14140;DHT22;7150;53.514;9.988;2022-10-16T06:35:11;19.60;91.30
14140;DHT22;7150;53.514;9.988;2022-10-16T06:37:37;19.60;91.30
14140;DHT22;7150;53.514;9.988;2022-10-16T06:40:03;19.50;91.20
14140;DHT22;7150;53.514;9.988;2022-10-16T06:42:29;19.60;91.40
14140;DHT22;7150;53.514;9.988;2022-10-16T06:44:55;19.60;91.30
14140;DHT22;7150;53.514;9.988;2022-10-16T06:47:20;19.50;91.40
14140;DHT22;7150;53.514;9.988;2022-10-16T06:49:46;19.60;91.40
14140;DHT22;7150;53.514;9.988;2022-10-16T06:52:11;19.60;91.40
14140;DHT22;7150;53.514;9.988;2022-10-16T06:54:37;19.60;91.40
14140;DHT22;7150;53.514;9.988;2022-10-16T06:57:02;19.60;91.50
14140;DHT22;7150;53.514;9.988;2022-10-16T06:59:28;19.60;91.50
14140;DHT22;7150;53.514;9.988;2022-10-16T07:01:53;19.60;91.60
14140;DHT22;7150;53.514;9.988;2022-10-16T07:04:19;19.60;91.60
14140;DHT22;7150;53.514;9.988;2022-10-16T07:06:44;19.60;91.70
14140;DHT22;7150;53.514;9.988;2022-10-16T07:09:10;19.60;91.70
14140;DHT22;7150;53.514;9.988;2022-10-16T07:11:37;19.70;91.70
14140;DHT22;7150;53.514;9.988;2022-10-16T07:14:03;19.70;91.80
14140;DHT22;7150;53.514;9.988;2022-10-16T07:16:31;19.70;91.80
14140;DHT22;7150;53.514;9.988;2022-10-16T07:18:59;19.70;91.80
14140;DHT22;7150;53.514;9.988;2022-10-16T07:21:27;19.70;91.90
14140;DHT22;7150;53.514;9.988;2022-10-16T07:23:56;19.70;91.90
14140;DHT22;7150;53.514;9.988;2022-10-16T07:26:24;19.80;91.90
14140;DHT22;7150;53.514;9.988;2022-10-16T07:28:50;19.80;91.90
14140;DHT22;7150;53.514;9.988;2022-10-16T07:31:17;19.90;91.90
14140;DHT22;7150;53.514;9.988;2022-10-16T07:33:43;19.90;91.90
14140;DHT22;7150;53.514;9.988;2022-10-16T07:36:11;20.00;91.90
14140;DHT22;7150;53.514;9.988;2022-10-16T07:38:37;19.90;91.90
14140;DHT22;7150;53.514;9.988;2022-10-16T07:41:09;20.00;91.90
14140;DHT22;7150;53.514;9.988;2022-10-16T07:43:35;20.00;91.90
14140;DHT22;7150;53.514;9.988;2022-10-16T07:46:00;20.00;91.80
14140;DHT22;7150;53.514;9.988;2022-10-16T07:48:31;20.00;92.20
14140;DHT22;7150;53.514;9.988;2022-10-16T07:51:02;20.10;91.90
14140;DHT22;7150;53.514;9.988;2022-10-16T07:53:28;20.10;92.00
14140;DHT22;7150;53.514;9.988;2022-10-16T07:56:01;20.20;92.00
14140;DHT22;7150;53.514;9.988;2022-10-16T07:58:28;20.20;92.00
14140;DHT22;7150;53.514;9.988;2022-10-16T08:00:54;20.20;91.90
14140;DHT22;7150;53.514;9.988;2022-10-16T08:03:19;20.30;92.00
14140;DHT22;7150;53.514;9.988;2022-10-16T08:05:45;20.30;92.00
14140;DHT22;7150;53.514;9.988;2022-10-16T08:08:14;20.30;91.90
14140;DHT22;7150;53.514;9.988;2022-10-16T08:10:40;20.30;91.90
14140;DHT22;7150;53.514;9.988;2022-10-16T08:13:06;20.40;91.90
14140;DHT22;7150;53.514;9.988;2022-10-16T08:15:31;20.40;91.90
14140;DHT22;7150;53.514;9.988;2022-10-16T08:17:58;20.40;91.90
14140;DHT22;7150;53.514;9.988;2022-10-16T08:20:25;20.40;91.90
14140;DHT22;7150;53.514;9.988;2022-10-16T08:22:52;20.40;91.90
14140;DHT22;7150;53.514;9.988;2022-10-16T08:25:17;20.40;91.90
14140;DHT22;7150;53.514;9.988;2022-10-16T08:27:43;20.40;91.90
14140;DHT22;7150;53.514;9.988;2022-10-16T08:30:10;20.40;91.90
14140;DHT22;7150;53.514;9.988;2022-10-16T08:32:35;20.40;91.90
14140;DHT22;7150;53.514;9.988;2022-10-16T08:35:01;20.40;91.90
14140;DHT22;7150;53.514;9.988;2022-10-16T08:37:30;20.40;91.90
14140;DHT22;7150;53.514;9.988;2022-10-16T08:39:56;20.50;91.90
14140;DHT22;7150;53.514;9.988;2022-10-16T08:45:23;20.50;91.80
14140;DHT22;7150;53.514;9.988;2022-10-16T08:48:14;20.50;91.80
14140;DHT22;7150;53.514;9.988;2022-10-16T08:50:43;20.50;91.80
14140;DHT22;7150;53.514;9.988;2022-10-16T08:53:15;20.50;91.90
14140;DHT22;7150;53.514;9.988;2022-10-16T08:55:46;20.60;91.90
14140;DHT22;7150;53.514;9.988;2022-10-16T08:58:21;20.60;91.90
14140;DHT22;7150;53.514;9.988;2022-10-16T09:00:54;20.60;91.80
14140;DHT22;7150;53.514;9.988;2022-10-16T09:06:06;20.60;91.80
14140;DHT22;7150;53.514;9.988;2022-10-16T09:11:52;20.70;91.80
14140;DHT22;7150;53.514;9.988;2022-10-16T09:17:23;20.80;91.70
14140;DHT22;7150;53.514;9.988;2022-10-16T09:20:00;20.80;91.70
14140;DHT22;7150;53.514;9.988;2022-10-16T09:22:29;20.90;91.70
14140;DHT22;7150;53.514;9.988;2022-10-16T09:25:00;20.90;91.60
14140;DHT22;7150;53.514;9.988;2022-10-16T09:27:26;20.90;91.60
14140;DHT22;7150;53.514;9.988;2022-10-16T09:29:52;20.90;91.50
14140;DHT22;7150;53.514;9.988;2022-10-16T09:32:20;20.90;91.40
14140;DHT22;7150;53.514;9.988;2022-10-16T09:34:53;21.00;91.40
14140;DHT22;7150;53.514;9.988;2022-10-16T09:37:21;20.90;91.10
14140;DHT22;7150;53.514;9.988;2022-10-16T09:39:53;20.90;91.00
14140;DHT22;7150;53.514;9.988;2022-10-16T09:42:38;20.90;91.00
14140;DHT22;7150;53.514;9.988;2022-10-16T09:45:04;21.00;91.00
14140;DHT22;7150;53.514;9.988;2022-10-16T09:47:31;21.00;90.90
14140;DHT22;7150;53.514;9.988;2022-10-16T09:50:03;21.10;90.80
14140;DHT22;7150;53.514;9.988;2022-10-16T09:52:32;21.10;90.70
14140;DHT22;7150;53.514;9.988;2022-10-16T09:55:00;21.10;90.60
14140;DHT22;7150;53.514;9.988;2022-10-16T09:57:26;21.10;90.50
14140;DHT22;7150;53.514;9.988;2022-10-16T09:59:57;21.10;90.30
14140;DHT22;7150;53.514;9.988;2022-10-16T10:02:36;21.10;90.40
14140;DHT22;7150;53.514;9.988;2022-10-16T10:05:05;21.20;90.30
14140;DHT22;7150;53.514;9.988;2022-10-16T10:07:33;21.10;90.20
14140;DHT22;7150;53.514;9.988;2022-10-16T10:10:03;21.20;90.40
14140;DHT22;7150;53.514;9.988;2022-10-16T10:12:30;21.20;90.20
14140;DHT22;7150;53.514;9.988;2022-10-16T10:15:07;21.20;90.50
14140;DHT22;7150;53.514;9.988;2022-10-16T10:17:46;21.20;90.10
14140;DHT22;7150;53.514;9.988;2022-10-16T10:20:35;21.20;90.10
14140;DHT22;7150;53.514;9.988;2022-10-16T10:23:21;21.20;90.30
14140;DHT22;7150;53.514;9.988;2022-10-16T10:26:28;21.20;90.00
14140;DHT22;7150;53.514;9.988;2022-10-16T10:28:54;21.20;90.00
14140;DHT22;7150;53.514;9.988;2022-10-16T10:40:11;21.20;90.00
14140;DHT22;7150;53.514;9.988;2022-10-16T10:42:57;21.30;89.80
14140;DHT22;7150;53.514;9.988;2022-10-16T10:45:36;21.40;89.90
14140;DHT22;7150;53.514;9.988;2022-10-16T10:48:26;21.40;89.70
14140;DHT22;7150;53.514;9.988;2022-10-16T10:51:01;21.50;89.50
14140;DHT22;7150;53.514;9.988;2022-10-16T10:56:40;21.60;89.30
14140;DHT22;7150;53.514;9.988;2022-10-16T11:02:00;21.60;87.80
14140;DHT22;7150;53.514;9.988;2022-10-16T11:04:33;21.60;88.00
14140;DHT22;7150;53.514;9.988;2022-10-16T11:07:14;21.60;88.00
14140;DHT22;7150;53.514;9.988;2022-10-16T11:09:44;21.70;87.60
14140;DHT22;7150;53.514;9.988;2022-10-16T11:14:56;21.70;87.10
14140;DHT22;7150;53.514;9.988;2022-10-16T11:17:31;21.70;86.20
14140;DHT22;7150;53.514;9.988;2022-10-16T11:22:52;21.70;86.00
14140;DHT22;7150;53.514;9.988;2022-10-16T11:28:11;21.70;85.90
14140;DHT22;7150;53.514;9.988;2022-10-16T11:30:50;21.80;85.60
14140;DHT22;7150;53.514;9.988;2022-10-16T11:33:42;21.80;85.60
14140;DHT22;7150;53.514;9.988;2022-10-16T11:36:26;21.80;85.10
14140;DHT22;7150;53.514;9.988;2022-10-16T11:39:03;21.80;85.20
14140;DHT22;7150;53.514;9.988;2022-10-16T11:41:45;21.80;85.10
14140;DHT22;7150;53.514;9.988;2022-10-16T11:49:32;22.00;84.40
14140;DHT22;7150;53.514;9.988;2022-10-16T11:54:38;21.90;84.00
14140;DHT22;7150;53.514;9.988;2022-10-16T11:57:14;21.90;84.10
14140;DHT22;7150;53.514;9.988;2022-10-16T11:59:51;22.00;84.30
14140;DHT22;7150;53.514;9.988;2022-10-16T12:07:39;22.00;82.60
14140;DHT22;7150;53.514;9.988;2022-10-16T12:10:25;22.00;81.50
14140;DHT22;7150;53.514;9.988;2022-10-16T12:12:51;22.00;80.10
14140;DHT22;7150;53.514;9.988;2022-10-16T12:15:29;22.00;80.00
14140;DHT22;7150;53.514;9.988;2022-10-16T12:17:56;22.10;80.20
14140;DHT22;7150;53.514;9.988;2022-10-16T12:20:28;22.10;80.10
14140;DHT22;7150;53.514;9.988;2022-10-16T12:22:58;22.10;79.50
14140;DHT22;7150;53.514;9.988;2022-10-16T12:25:25;22.10;79.10
14140;DHT22;7150;53.514;9.988;2022-10-16T12:28:20;22.00;79.40
14140;DHT22;7150;53.514;9.988;2022-10-16T12:33:30;21.80;78.40
14140;DHT22;7150;53.514;9.988;2022-10-16T12:36:03;21.80;78.60
14140;DHT22;7150;53.514;9.988;2022-10-16T12:41:04;21.90;79.10
14140;DHT22;7150;53.514;9.988;2022-10-16T12:43:47;21.80;79.00
14140;DHT22;7150;53.514;9.988;2022-10-16T12:48:40;21.80;78.80
14140;DHT22;7150;53.514;9.988;2022-10-16T12:51:21;21.90;79.00
14140;DHT22;7150;53.514;9.988;2022-10-16T12:54:05;22.00;78.90
14140;DHT22;7150;53.514;9.988;2022-10-16T12:59:59;22.00;78.30
14140;DHT22;7150;53.514;9.988;2022-10-16T13:05:42;22.10;78.00
14140;DHT22;7150;53.514;9.988;2022-10-16T13:11:03;22.10;77.60
14140;DHT22;7150;53.514;9.988;2022-10-16T13:13:43;22.10;77.50
14140;DHT22;7150;53.514;9.988;2022-10-16T13:19:53;22.20;77.20
14140;DHT22;7150;53.514;9.988;2022-10-16T13:27:34;22.10;77.60
14140;DHT22;7150;53.514;9.988;2022-10-16T13:30:15;22.10;77.60
14140;DHT22;7150;53.514;9.988;2022-10-16T13:32:45;22.20;77.60
14140;DHT22;7150;53.514;9.988;2022-10-16T13:35:29;22.20;77.50
14140;DHT22;7150;53.514;9.988;2022-10-16T13:38:14;22.30;77.50
14140;DHT22;7150;53.514;9.988;2022-10-16T13:43:14;22.30;77.60
14140;DHT22;7150;53.514;9.988;2022-10-16T13:45:41;22.40;77.60
14140;DHT22;7150;53.514;9.988;2022-10-16T13:48:09;22.40;76.90
14140;DHT22;7150;53.514;9.988;2022-10-16T13:50:37;22.40;76.20
14140;DHT22;7150;53.514;9.988;2022-10-16T13:53:04;22.40;75.50
14140;DHT22;7150;53.514;9.988;2022-10-16T13:55:31;22.30;75.40
14140;DHT22;7150;53.514;9.988;2022-10-16T13:58:11;22.30;75.50
14140;DHT22;7150;53.514;9.988;2022-10-16T14:00:37;22.20;74.90
14140;DHT22;7150;53.514;9.988;2022-10-16T14:03:16;22.20;75.30
14140;DHT22;7150;53.514;9.988;2022-10-16T14:08:13;22.20;75.90
14140;DHT22;7150;53.514;9.988;2022-10-16T14:10:39;22.20;75.90
14140;DHT22;7150;53.514;9.988;2022-10-16T14:13:06;22.30;75.90
14140;DHT22;7150;53.514;9.988;2022-10-16T14:15:35;22.20;76.60
14140;DHT22;7150;53.514;9.988;2022-10-16T14:18:02;22.20;75.80
14140;DHT22;7150;53.514;9.988;2022-10-16T14:20:31;22.20;75.70
14140;DHT22;7150;53.514;9.988;2022-10-16T14:23:18;22.20;75.60
14140;DHT22;7150;53.514;9.988;2022-10-16T14:25:44;22.30;75.70
14140;DHT22;7150;53.514;9.988;2022-10-16T14:30:58;22.30;75.90
14140;DHT22;7150;53.514;9.988;2022-10-16T14:33:32;22.40;75.90
14140;DHT22;7150;53.514;9.988;2022-10-16T14:38:38;22.30;75.40
14140;DHT22;7150;53.514;9.988;2022-10-16T14:41:04;22.20;75.60
14140;DHT22;7150;53.514;9.988;2022-10-16T14:43:35;22.30;75.40
14140;DHT22;7150;53.514;9.988;2022-10-16T14:46:03;22.30;75.40
14140;DHT22;7150;53.514;9.988;2022-10-16T14:48:31;22.20;75.30
14140;DHT22;7150;53.514;9.988;2022-10-16T14:50:57;22.30;75.50
14140;DHT22;7150;53.514;9.988;2022-10-16T14:53:22;22.30;75.60
14140;DHT22;7150;53.514;9.988;2022-10-16T14:55:48;22.30;75.50
14140;DHT22;7150;53.514;9.988;2022-10-16T14:58:16;22.30;75.60
14140;DHT22;7150;53.514;9.988;2022-10-16T15:00:42;22.30;75.60
14140;DHT22;7150;53.514;9.988;2022-10-16T15:03:08;22.20;75.50
14140;DHT22;7150;53.514;9.988;2022-10-16T15:05:33;22.20;76.00
14140;DHT22;7150;53.514;9.988;2022-10-16T15:07:59;22.20;76.00
14140;DHT22;7150;53.514;9.988;2022-10-16T15:10:26;22.10;76.40
14140;DHT22;7150;53.514;9.988;2022-10-16T15:12:52;22.10;76.20
14140;DHT22;7150;53.514;9.988;2022-10-16T15:17:56;22.00;76.20
14140;DHT22;7150;53.514;9.988;2022-10-16T15:20:26;22.00;76.20
14140;DHT22;7150;53.514;9.988;2022-10-16T15:22:52;22.00;76.20
14140;DHT22;7150;53.514;9.988;2022-10-16T15:25:32;22.00;75.90
14140;DHT22;7150;53.514;9.988;2022-10-16T15:28:03;22.00;76.30
14140;DHT22;7150;53.514;9.988;2022-10-16T15:30:29;21.90;76.40
14140;DHT22;7150;53.514;9.988;2022-10-16T15:32:54;21.90;76.40
14140;DHT22;7150;53.514;9.988;2022-10-16T15:35:20;21.90;76.60
14140;DHT22;7150;53.514;9.988;2022-10-16T15:37:47;21.90;76.50
14140;DHT22;7150;53.514;9.988;2022-10-16T15:40:13;22.00;76.70
14140;DHT22;7150;53.514;9.988;2022-10-16T15:42:39;22.00;76.70
14140;DHT22;7150;53.514;9.988;2022-10-16T15:45:05;22.00;76.70
14140;DHT22;7150;53.514;9.988;2022-10-16T15:47:31;21.90;76.30
14140;DHT22;7150;53.514;9.988;2022-10-16T15:49:57;21.80;76.50
14140;DHT22;7150;53.514;9.988;2022-10-16T15:52:22;21.80;76.60
14140;DHT22;7150;53.514;9.988;2022-10-16T15:54:48;21.80;76.30
14140;DHT22;7150;53.514;9.988;2022-10-16T15:57:13;21.80;76.40
14140;DHT22;7150;53.514;9.988;2022-10-16T15:59:39;21.80;76.50
14140;DHT22;7150;53.514;9.988;2022-10-16T16:02:05;21.80;76.80
14140;DHT22;7150;53.514;9.988;2022-10-16T16:04:30;21.80;76.80
14140;DHT22;7150;53.514;9.988;2022-10-16T16:06:56;21.80;76.70
14140;DHT22;7150;53.514;9.988;2022-10-16T16:09:22;21.80;76.70
14140;DHT22;7150;53.514;9.988;2022-10-16T16:11:47;21.80;76.70
14140;DHT22;7150;53.514;9.988;2022-10-16T16:14:14;21.70;76.60
14140;DHT22;7150;53.514;9.988;2022-10-16T16:16:41;21.70;76.40
14140;DHT22;7150;53.514;9.988;2022-10-16T16:19:06;21.70;76.60
14140;DHT22;7150;53.514;9.988;2022-10-16T16:21:33;21.70;76.50
14140;DHT22;7150;53.514;9.988;2022-10-16T16:23:59;21.80;76.50
14140;DHT22;7150;53.514;9.988;2022-10-16T16:26:25;21.80;76.60
14140;DHT22;7150;53.514;9.988;2022-10-16T16:28:52;21.80;76.60
14140;DHT22;7150;53.514;9.988;2022-10-16T16:31:17;21.80;76.60
14140;DHT22;7150;53.514;9.988;2022-10-16T16:33:43;21.80;76.50
14140;DHT22;7150;53.514;9.988;2022-10-16T16:36:09;21.80;76.70
14140;DHT22;7150;53.514;9.988;2022-10-16T16:38:34;21.80;76.80
14140;DHT22;7150;53.514;9.988;2022-10-16T16:41:22;21.80;77.00
14140;DHT22;7150;53.514;9.988;2022-10-16T16:43:48;21.80;77.30
14140;DHT22;7150;53.514;9.988;2022-10-16T16:46:15;21.70;77.60
14140;DHT22;7150;53.514;9.988;2022-10-16T16:48:41;21.70;77.80
14140;DHT22;7150;53.514;9.988;2022-10-16T16:51:09;21.60;78.00
14140;DHT22;7150;53.514;9.988;2022-10-16T16:53:40;21.60;78.50
14140;DHT22;7150;53.514;9.988;2022-10-16T16:56:07;21.50;78.60
14140;DHT22;7150;53.514;9.988;2022-10-16T16:58:32;21.50;78.80
14140;DHT22;7150;53.514;9.988;2022-10-16T17:00:59;21.50;79.10
14140;DHT22;7150;53.514;9.988;2022-10-16T17:03:27;21.40;79.20
14140;DHT22;7150;53.514;9.988;2022-10-16T17:05:57;21.40;79.50
14140;DHT22;7150;53.514;9.988;2022-10-16T17:08:23;21.30;79.60
14140;DHT22;7150;53.514;9.988;2022-10-16T17:10:49;21.30;79.70
14140;DHT22;7150;53.514;9.988;2022-10-16T17:13:18;21.20;79.90
14140;DHT22;7150;53.514;9.988;2022-10-16T17:15:48;21.20;80.20
14140;DHT22;7150;53.514;9.988;2022-10-16T17:18:13;21.20;80.40
14140;DHT22;7150;53.514;9.988;2022-10-16T17:20:39;21.20;80.60
14140;DHT22;7150;53.514;9.988;2022-10-16T17:23:05;21.10;80.50
14140;DHT22;7150;53.514;9.988;2022-10-16T17:25:31;21.10;80.90
14140;DHT22;7150;53.514;9.988;2022-10-16T17:27:57;20.70;80.70
14140;DHT22;7150;53.514;9.988;2022-10-16T17:30:23;21.00;81.20
14140;DHT22;7150;53.514;9.988;2022-10-16T17:32:49;21.00;81.30
14140;DHT22;7150;53.514;9.988;2022-10-16T17:35:15;21.00;81.50
14140;DHT22;7150;53.514;9.988;2022-10-16T17:37:41;21.00;81.60